sensor_id;sensor_type;location;lat;lon;timestamp;P1;durP1;ratioP1;P2;durP2;ratioP2
29168;SDS011;16219;42.864;23.360;2023-02-15T00:01:33;15.05;;;9.52;;
29168;SDS011;16219;42.864;23.360;2023-02-15T00:04:00;13.77;;;8.38;;
29168;SDS011;16219;42.864;23.360;2023-02-15T00:06:27;12.65;;;8.18;;
29168;SDS011;16219;42.864;23.360;2023-02-15T00:08:54;8.95;;;7.07;;
29168;SDS011;16219;42.864;23.360;2023-02-15T00:11:22;15.68;;;10.15;;
29168;SDS011;16219;42.864;23.360;2023-02-15T00:14:03;14.35;;;8.55;;
29168;SDS011;16219;42.864;23.360;2023-02-15T00:16:30;21.42;;;10.13;;
29168;SDS011;16219;42.864;23.360;2023-02-15T00:18:59;11.10;;;7.15;;
29168;SDS011;16219;42.864;23.360;2023-02-15T00:21:27;12.27;;;7.70;;
29168;SDS011;16219;42.864;23.360;2023-02-15T00:23:54;41.88;;;8.25;;
29168;SDS011;16219;42.864;23.360;2023-02-15T00:26:22;15.50;;;8.60;;
29168;SDS011;16219;42.864;23.360;2023-02-15T00:28:49;13.82;;;8.13;;
29168;SDS011;16219;42.864;23.360;2023-02-15T00:31:18;13.27;;;6.82;;
29168;SDS011;16219;42.864;23.360;2023-02-15T00:33:47;12.38;;;8.20;;
29168;SDS011;16219;42.864;23.360;2023-02-15T00:36:14;13.13;;;6.25;;
29168;SDS011;16219;42.864;23.360;2023-02-15T00:38:41;12.52;;;9.82;;
29168;SDS011;16219;42.864;23.360;2023-02-15T00:41:08;13.85;;;7.97;;
29168;SDS011;16219;42.864;23.360;2023-02-15T00:43:36;6.82;;;5.85;;
29168;SDS011;16219;42.864;23.360;2023-02-15T00:46:04;6.90;;;5.50;;
29168;SDS011;16219;42.864;23.360;2023-02-15T00:48:31;7.07;;;5.68;;
29168;SDS011;16219;42.864;23.360;2023-02-15T00:51:00;5.47;;;4.88;;
29168;SDS011;16219;42.864;23.360;2023-02-15T00:53:28;12.10;;;6.65;;
29168;SDS011;16219;42.864;23.360;2023-02-15T00:55:56;9.68;;;5.85;;
29168;SDS011;16219;42.864;23.360;2023-02-15T00:58:23;11.27;;;5.95;;
29168;SDS011;16219;42.864;23.360;2023-02-15T01:00:51;13.35;;;7.82;;
29168;SDS011;16219;42.864;23.360;2023-02-15T01:03:19;9.23;;;5.57;;
29168;SDS011;16219;42.864;23.360;2023-02-15T01:05:47;11.15;;;5.53;;
29168;SDS011;16219;42.864;23.360;2023-02-15T01:08:16;12.60;;;6.38;;
29168;SDS011;16219;42.864;23.360;2023-02-15T01:10:43;9.80;;;6.15;;
29168;SDS011;16219;42.864;23.360;2023-02-15T01:13:13;7.53;;;6.18;;
29168;SDS011;16219;42.864;23.360;2023-02-15T01:15:41;11.60;;;5.82;;
29168;SDS011;16219;42.864;23.360;2023-02-15T01:18:08;11.90;;;5.90;;
29168;SDS011;16219;42.864;23.360;2023-02-15T01:20:36;8.63;;;6.10;;
29168;SDS011;16219;42.864;23.360;2023-02-15T01:23:06;9.77;;;6.00;;
29168;SDS011;16219;42.864;23.360;2023-02-15T01:25:35;12.60;;;6.35;;
29168;SDS011;16219;42.864;23.360;2023-02-15T01:28:03;15.13;;;8.82;;
29168;SDS011;16219;42.864;23.360;2023-02-15T01:30:31;10.18;;;5.15;;
29168;SDS011;16219;42.864;23.360;2023-02-15T01:32:59;9.85;;;6.95;;
29168;SDS011;16219;42.864;23.360;2023-02-15T01:35:29;13.65;;;6.43;;
29168;SDS011;16219;42.864;23.360;2023-02-15T01:37:56;7.60;;;5.50;;
29168;SDS011;16219;42.864;23.360;2023-02-15T01:40:24;7.82;;;5.95;;
29168;SDS011;16219;42.864;23.360;2023-02-15T01:42:53;9.50;;;6.10;;
29168;SDS011;16219;42.864;23.360;2023-02-15T01:45:22;10.82;;;6.95;;
29168;SDS011;16219;42.864;23.360;2023-02-15T01:47:52;13.60;;;6.25;;
29168;SDS011;16219;42.864;23.360;2023-02-15T01:50:23;5.15;;;4.65;;
29168;SDS011;16219;42.864;23.360;2023-02-15T01:52:58;6.28;;;5.45;;
29168;SDS011;16219;42.864;23.360;2023-02-15T01:55:29;13.23;;;5.82;;
29168;SDS011;16219;42.864;23.360;2023-02-15T01:58:00;8.48;;;5.68;;
29168;SDS011;16219;42.864;23.360;2023-02-15T02:00:28;10.77;;;5.60;;
29168;SDS011;16219;42.864;23.360;2023-02-15T02:02:56;14.70;;;7.13;;
29168;SDS011;16219;42.864;23.360;2023-02-15T02:05:24;9.88;;;4.97;;
29168;SDS011;16219;42.864;23.360;2023-02-15T02:07:51;10.70;;;5.38;;
29168;SDS011;16219;42.864;23.360;2023-02-15T02:10:22;7.65;;;5.40;;
29168;SDS011;16219;42.864;23.360;2023-02-15T02:12:51;8.95;;;5.55;;
29168;SDS011;16219;42.864;23.360;2023-02-15T02:15:25;8.57;;;5.95;;
29168;SDS011;16219;42.864;23.360;2023-02-15T02:18:03;10.80;;;5.82;;
29168;SDS011;16219;42.864;23.360;2023-02-15T02:20:47;7.32;;;5.47;;
29168;SDS011;16219;42.864;23.360;2023-02-15T02:23:34;11.82;;;6.70;;
29168;SDS011;16219;42.864;23.360;2023-02-15T02:26:27;8.13;;;5.55;;
29168;SDS011;16219;42.864;23.360;2023-02-15T02:32:34;12.63;;;5.85;;
29168;SDS011;16219;42.864;23.360;2023-02-15T02:37:52;5.65;;;5.07;;
29168;SDS011;16219;42.864;23.360;2023-02-15T02:40:30;12.55;;;5.60;;
29168;SDS011;16219;42.864;23.360;2023-02-15T02:43:08;5.80;;;4.60;;
29168;SDS011;16219;42.864;23.360;2023-02-15T02:45:43;8.10;;;5.72;;
29168;SDS011;16219;42.864;23.360;2023-02-15T02:48:17;7.57;;;4.78;;
29168;SDS011;16219;42.864;23.360;2023-02-15T02:50:49;7.65;;;4.90;;
29168;SDS011;16219;42.864;23.360;2023-02-15T02:53:18;9.05;;;4.80;;
29168;SDS011;16219;42.864;23.360;2023-02-15T02:55:46;5.55;;;4.65;;
29168;SDS011;16219;42.864;23.360;2023-02-15T02:58:16;5.97;;;5.13;;
29168;SDS011;16219;42.864;23.360;2023-02-15T03:00:48;6.72;;;4.22;;
29168;SDS011;16219;42.864;23.360;2023-02-15T03:03:20;10.57;;;5.20;;
29168;SDS011;16219;42.864;23.360;2023-02-15T03:05:54;5.40;;;4.73;;
29168;SDS011;16219;42.864;23.360;2023-02-15T03:08:25;7.68;;;4.78;;
29168;SDS011;16219;42.864;23.360;2023-02-15T03:10:57;6.85;;;5.18;;
29168;SDS011;16219;42.864;23.360;2023-02-15T03:13:27;5.82;;;4.78;;
29168;SDS011;16219;42.864;23.360;2023-02-15T03:15:54;9.82;;;4.68;;
29168;SDS011;16219;42.864;23.360;2023-02-15T03:18:41;8.90;;;5.00;;
29168;SDS011;16219;42.864;23.360;2023-02-15T03:21:21;7.30;;;4.60;;
29168;SDS011;16219;42.864;23.360;2023-02-15T03:23:53;7.97;;;4.90;;
29168;SDS011;16219;42.864;23.360;2023-02-15T03:26:23;7.50;;;5.78;;
29168;SDS011;16219;42.864;23.360;2023-02-15T03:28:53;6.45;;;5.40;;
29168;SDS011;16219;42.864;23.360;2023-02-15T03:31:24;8.90;;;4.30;;
29168;SDS011;16219;42.864;23.360;2023-02-15T03:33:55;7.88;;;5.10;;
29168;SDS011;16219;42.864;23.360;2023-02-15T03:36:28;9.63;;;5.32;;
29168;SDS011;16219;42.864;23.360;2023-02-15T03:39:02;5.78;;;5.05;;
29168;SDS011;16219;42.864;23.360;2023-02-15T03:41:34;6.95;;;4.35;;
29168;SDS011;16219;42.864;23.360;2023-02-15T03:44:07;7.80;;;5.03;;
29168;SDS011;16219;42.864;23.360;2023-02-15T03:46:41;5.68;;;4.35;;
29168;SDS011;16219;42.864;23.360;2023-02-15T03:49:13;12.27;;;5.28;;
29168;SDS011;16219;42.864;23.360;2023-02-15T03:51:46;14.52;;;5.60;;
29168;SDS011;16219;42.864;23.360;2023-02-15T03:54:15;7.82;;;3.78;;
29168;SDS011;16219;42.864;23.360;2023-02-15T03:59:41;6.63;;;5.25;;
29168;SDS011;16219;42.864;23.360;2023-02-15T04:02:26;6.75;;;5.13;;
29168;SDS011;16219;42.864;23.360;2023-02-15T04:05:00;7.22;;;4.88;;
29168;SDS011;16219;42.864;23.360;2023-02-15T04:07:28;4.20;;;3.85;;
29168;SDS011;16219;42.864;23.360;2023-02-15T04:09:55;5.68;;;4.85;;
29168;SDS011;16219;42.864;23.360;2023-02-15T04:15:11;9.00;;;4.43;;
29168;SDS011;16219;42.864;23.360;2023-02-15T04:17:55;16.60;;;5.32;;
29168;SDS011;16219;42.864;23.360;2023-02-15T04:20:22;6.40;;;5.07;;
29168;SDS011;16219;42.864;23.360;2023-02-15T04:23:08;11.32;;;4.72;;
29168;SDS011;16219;42.864;23.360;2023-02-15T04:25:52;9.13;;;5.18;;
29168;SDS011;16219;42.864;23.360;2023-02-15T04:28:19;7.78;;;5.28;;
29168;SDS011;16219;42.864;23.360;2023-02-15T04:30:46;11.25;;;5.43;;
29168;SDS011;16219;42.864;23.360;2023-02-15T04:33:13;7.78;;;5.47;;
29168;SDS011;16219;42.864;23.360;2023-02-15T04:35:40;5.85;;;4.80;;
29168;SDS011;16219;42.864;23.360;2023-02-15T04:38:11;11.35;;;5.93;;
29168;SDS011;16219;42.864;23.360;2023-02-15T04:40:38;7.53;;;5.10;;
29168;SDS011;16219;42.864;23.360;2023-02-15T04:43:05;11.25;;;4.82;;
29168;SDS011;16219;42.864;23.360;2023-02-15T04:45:32;12.20;;;5.10;;
29168;SDS011;16219;42.864;23.360;2023-02-15T04:47:59;11.80;;;4.57;;
29168;SDS011;16219;42.864;23.360;2023-02-15T04:50:26;6.82;;;4.18;;
29168;SDS011;16219;42.864;23.360;2023-02-15T04:52:53;5.10;;;4.60;;
29168;SDS011;16219;42.864;23.360;2023-02-15T04:55:21;9.27;;;4.72;;
29168;SDS011;16219;42.864;23.360;2023-02-15T04:57:49;6.35;;;5.75;;
29168;SDS011;16219;42.864;23.360;2023-02-15T05:00:17;6.13;;;5.00;;
29168;SDS011;16219;42.864;23.360;2023-02-15T05:02:45;6.55;;;5.03;;
29168;SDS011;16219;42.864;23.360;2023-02-15T05:05:12;13.82;;;6.20;;
29168;SDS011;16219;42.864;23.360;2023-02-15T05:07:40;7.90;;;4.50;;
29168;SDS011;16219;42.864;23.360;2023-02-15T05:10:08;7.63;;;5.47;;
29168;SDS011;16219;42.864;23.360;2023-02-15T05:12:37;7.57;;;4.05;;
29168;SDS011;16219;42.864;23.360;2023-02-15T05:15:05;12.23;;;5.97;;
29168;SDS011;16219;42.864;23.360;2023-02-15T05:17:32;7.50;;;4.55;;
29168;SDS011;16219;42.864;23.360;2023-02-15T05:20:00;7.28;;;5.18;;
29168;SDS011;16219;42.864;23.360;2023-02-15T05:22:27;9.52;;;4.72;;
29168;SDS011;16219;42.864;23.360;2023-02-15T05:24:55;12.20;;;5.75;;
29168;SDS011;16219;42.864;23.360;2023-02-15T05:27:41;13.15;;;5.82;;
29168;SDS011;16219;42.864;23.360;2023-02-15T05:30:26;18.55;;;6.00;;
29168;SDS011;16219;42.864;23.360;2023-02-15T05:32:53;10.98;;;6.20;;
29168;SDS011;16219;42.864;23.360;2023-02-15T05:35:20;8.38;;;6.38;;
29168;SDS011;16219;42.864;23.360;2023-02-15T05:37:47;11.35;;;5.18;;
29168;SDS011;16219;42.864;23.360;2023-02-15T05:40:14;9.05;;;5.85;;
29168;SDS011;16219;42.864;23.360;2023-02-15T05:42:44;7.38;;;5.68;;
29168;SDS011;16219;42.864;23.360;2023-02-15T05:45:11;12.35;;;6.65;;
29168;SDS011;16219;42.864;23.360;2023-02-15T05:47:38;12.60;;;5.65;;
29168;SDS011;16219;42.864;23.360;2023-02-15T05:50:06;8.52;;;5.07;;
29168;SDS011;16219;42.864;23.360;2023-02-15T05:52:34;7.95;;;5.53;;
29168;SDS011;16219;42.864;23.360;2023-02-15T05:55:02;9.73;;;6.63;;
29168;SDS011;16219;42.864;23.360;2023-02-15T05:57:29;9.15;;;6.40;;
29168;SDS011;16219;42.864;23.360;2023-02-15T05:59:58;9.25;;;5.22;;
29168;SDS011;16219;42.864;23.360;2023-02-15T06:02:25;14.43;;;5.75;;
29168;SDS011;16219;42.864;23.360;2023-02-15T06:04:52;12.07;;;6.00;;
29168;SDS011;16219;42.864;23.360;2023-02-15T06:07:20;6.65;;;5.18;;
29168;SDS011;16219;42.864;23.360;2023-02-15T06:09:47;5.28;;;4.15;;
29168;SDS011;16219;42.864;23.360;2023-02-15T06:12:14;11.57;;;5.80;;
29168;SDS011;16219;42.864;23.360;2023-02-15T06:14:42;11.18;;;4.70;;
29168;SDS011;16219;42.864;23.360;2023-02-15T06:17:11;8.38;;;5.78;;
29168;SDS011;16219;42.864;23.360;2023-02-15T06:19:39;6.80;;;5.93;;
29168;SDS011;16219;42.864;23.360;2023-02-15T06:22:06;9.30;;;5.70;;
29168;SDS011;16219;42.864;23.360;2023-02-15T06:24:33;9.57;;;6.38;;
29168;SDS011;16219;42.864;23.360;2023-02-15T06:27:00;12.48;;;6.78;;
29168;SDS011;16219;42.864;23.360;2023-02-15T06:29:29;16.77;;;6.90;;
29168;SDS011;16219;42.864;23.360;2023-02-15T06:31:56;16.30;;;7.55;;
29168;SDS011;16219;42.864;23.360;2023-02-15T06:34:24;9.18;;;7.25;;
29168;SDS011;16219;42.864;23.360;2023-02-15T06:36:52;13.43;;;7.85;;
29168;SDS011;16219;42.864;23.360;2023-02-15T06:39:19;14.57;;;8.73;;
29168;SDS011;16219;42.864;23.360;2023-02-15T06:41:47;13.98;;;7.05;;
29168;SDS011;16219;42.864;23.360;2023-02-15T06:44:15;13.10;;;6.65;;
29168;SDS011;16219;42.864;23.360;2023-02-15T06:46:42;17.67;;;6.00;;
29168;SDS011;16219;42.864;23.360;2023-02-15T06:49:09;16.50;;;7.03;;
29168;SDS011;16219;42.864;23.360;2023-02-15T06:51:37;13.48;;;7.43;;
29168;SDS011;16219;42.864;23.360;2023-02-15T06:54:05;14.23;;;8.75;;
29168;SDS011;16219;42.864;23.360;2023-02-15T06:56:32;14.07;;;9.27;;
29168;SDS011;16219;42.864;23.360;2023-02-15T06:59:00;12.20;;;9.07;;
29168;SDS011;16219;42.864;23.360;2023-02-15T07:01:27;14.38;;;8.30;;
29168;SDS011;16219;42.864;23.360;2023-02-15T07:03:54;18.40;;;8.35;;
29168;SDS011;16219;42.864;23.360;2023-02-15T07:06:21;15.57;;;10.43;;
29168;SDS011;16219;42.864;23.360;2023-02-15T07:08:50;12.98;;;9.65;;
29168;SDS011;16219;42.864;23.360;2023-02-15T07:11:18;14.27;;;10.60;;
29168;SDS011;16219;42.864;23.360;2023-02-15T07:14:02;21.98;;;12.63;;
29168;SDS011;16219;42.864;23.360;2023-02-15T07:16:29;14.25;;;9.45;;
29168;SDS011;16219;42.864;23.360;2023-02-15T07:18:57;11.07;;;9.00;;
29168;SDS011;16219;42.864;23.360;2023-02-15T07:21:24;7.55;;;6.82;;
29168;SDS011;16219;42.864;23.360;2023-02-15T07:23:55;19.00;;;8.18;;
29168;SDS011;16219;42.864;23.360;2023-02-15T07:26:23;10.30;;;7.00;;
29168;SDS011;16219;42.864;23.360;2023-02-15T07:28:50;16.60;;;7.95;;
29168;SDS011;16219;42.864;23.360;2023-02-15T07:31:17;11.05;;;7.60;;
29168;SDS011;16219;42.864;23.360;2023-02-15T07:33:44;13.57;;;7.55;;
29168;SDS011;16219;42.864;23.360;2023-02-15T07:36:12;18.08;;;9.10;;
29168;SDS011;16219;42.864;23.360;2023-02-15T07:38:40;9.95;;;7.25;;
29168;SDS011;16219;42.864;23.360;2023-02-15T07:41:10;11.98;;;6.85;;
29168;SDS011;16219;42.864;23.360;2023-02-15T07:43:39;15.25;;;8.90;;
29168;SDS011;16219;42.864;23.360;2023-02-15T07:46:09;17.88;;;8.13;;
29168;SDS011;16219;42.864;23.360;2023-02-15T07:48:38;7.68;;;5.75;;
29168;SDS011;16219;42.864;23.360;2023-02-15T07:51:08;9.60;;;5.70;;
29168;SDS011;16219;42.864;23.360;2023-02-15T07:53:36;12.45;;;7.30;;
29168;SDS011;16219;42.864;23.360;2023-02-15T07:56:05;8.55;;;6.35;;
29168;SDS011;16219;42.864;23.360;2023-02-15T07:58:34;11.25;;;8.50;;
29168;SDS011;16219;42.864;23.360;2023-02-15T08:01:18;11.32;;;7.82;;
29168;SDS011;16219;42.864;23.360;2023-02-15T08:03:47;12.73;;;5.57;;
29168;SDS011;16219;42.864;23.360;2023-02-15T08:06:14;7.20;;;5.97;;
29168;SDS011;16219;42.864;23.360;2023-02-15T08:08:42;14.68;;;8.10;;
29168;SDS011;16219;42.864;23.360;2023-02-15T08:11:15;10.75;;;6.13;;
29168;SDS011;16219;42.864;23.360;2023-02-15T08:13:56;6.65;;;5.03;;
29168;SDS011;16219;42.864;23.360;2023-02-15T08:16:26;9.07;;;7.00;;
29168;SDS011;16219;42.864;23.360;2023-02-15T08:18:56;12.50;;;5.85;;
29168;SDS011;16219;42.864;23.360;2023-02-15T08:21:25;23.73;;;7.78;;
29168;SDS011;16219;42.864;23.360;2023-02-15T08:23:56;9.13;;;6.80;;
29168;SDS011;16219;42.864;23.360;2023-02-15T08:26:24;8.80;;;5.95;;
29168;SDS011;16219;42.864;23.360;2023-02-15T08:28:53;23.52;;;6.95;;
29168;SDS011;16219;42.864;23.360;2023-02-15T08:31:22;23.10;;;8.18;;
29168;SDS011;16219;42.864;23.360;2023-02-15T08:33:51;7.88;;;6.45;;
29168;SDS011;16219;42.864;23.360;2023-02-15T08:36:21;16.63;;;7.75;;
29168;SDS011;16219;42.864;23.360;2023-02-15T08:38:50;12.07;;;7.30;;
29168;SDS011;16219;42.864;23.360;2023-02-15T08:41:18;8.93;;;6.68;;
29168;SDS011;16219;42.864;23.360;2023-02-15T08:43:48;9.85;;;5.65;;
29168;SDS011;16219;42.864;23.360;2023-02-15T08:46:19;10.57;;;6.97;;
29168;SDS011;16219;42.864;23.360;2023-02-15T08:48:48;10.32;;;7.22;;
29168;SDS011;16219;42.864;23.360;2023-02-15T08:51:17;11.93;;;6.82;;
29168;SDS011;16219;42.864;23.360;2023-02-15T08:53:46;12.80;;;6.57;;
29168;SDS011;16219;42.864;23.360;2023-02-15T08:56:15;8.60;;;5.15;;
29168;SDS011;16219;42.864;23.360;2023-02-15T08:58:44;5.15;;;3.67;;
29168;SDS011;16219;42.864;23.360;2023-02-15T09:01:12;7.55;;;4.65;;
29168;SDS011;16219;42.864;23.360;2023-02-15T09:03:43;9.75;;;5.40;;
29168;SDS011;16219;42.864;23.360;2023-02-15T09:06:13;9.75;;;5.40;;
29168;SDS011;16219;42.864;23.360;2023-02-15T09:08:40;5.85;;;5.25;;
29168;SDS011;16219;42.864;23.360;2023-02-15T09:11:09;12.35;;;6.65;;
29168;SDS011;16219;42.864;23.360;2023-02-15T09:13:37;14.30;;;5.35;;
29168;SDS011;16219;42.864;23.360;2023-02-15T09:16:06;9.15;;;4.60;;
29168;SDS011;16219;42.864;23.360;2023-02-15T09:18:34;4.93;;;4.53;;
29168;SDS011;16219;42.864;23.360;2023-02-15T09:21:05;9.23;;;4.53;;
29168;SDS011;16219;42.864;23.360;2023-02-15T09:23:40;5.25;;;3.28;;
29168;SDS011;16219;42.864;23.360;2023-02-15T09:26:09;7.20;;;4.20;;
29168;SDS011;16219;42.864;23.360;2023-02-15T09:28:38;4.88;;;3.85;;
29168;SDS011;16219;42.864;23.360;2023-02-15T09:31:06;5.82;;;4.55;;
29168;SDS011;16219;42.864;23.360;2023-02-15T09:33:35;4.65;;;3.05;;
29168;SDS011;16219;42.864;23.360;2023-02-15T09:36:02;5.03;;;3.90;;
29168;SDS011;16219;42.864;23.360;2023-02-15T09:38:30;4.32;;;3.55;;
29168;SDS011;16219;42.864;23.360;2023-02-15T09:41:06;3.95;;;3.50;;
29168;SDS011;16219;42.864;23.360;2023-02-15T09:43:49;3.45;;;3.22;;
29168;SDS011;16219;42.864;23.360;2023-02-15T09:46:30;6.75;;;4.40;;
29168;SDS011;16219;42.864;23.360;2023-02-15T09:49:16;10.50;;;4.43;;
29168;SDS011;16219;42.864;23.360;2023-02-15T09:54:55;8.55;;;5.50;;
29168;SDS011;16219;42.864;23.360;2023-02-15T09:57:39;3.78;;;3.38;;
29168;SDS011;16219;42.864;23.360;2023-02-15T10:00:16;3.10;;;2.80;;
29168;SDS011;16219;42.864;23.360;2023-02-15T10:03:13;4.07;;;3.47;;
29168;SDS011;16219;42.864;23.360;2023-02-15T10:05:54;8.68;;;3.92;;
29168;SDS011;16219;42.864;23.360;2023-02-15T10:08:37;3.80;;;3.45;;
29168;SDS011;16219;42.864;23.360;2023-02-15T10:11:14;3.33;;;3.00;;
29168;SDS011;16219;42.864;23.360;2023-02-15T10:14:09;9.68;;;4.13;;
29168;SDS011;16219;42.864;23.360;2023-02-15T10:16:48;3.10;;;2.03;;
29168;SDS011;16219;42.864;23.360;2023-02-15T10:19:25;4.10;;;3.13;;
29168;SDS011;16219;42.864;23.360;2023-02-15T10:22:06;5.97;;;3.13;;
29168;SDS011;16219;42.864;23.360;2023-02-15T10:24:47;3.53;;;3.22;;
29168;SDS011;16219;42.864;23.360;2023-02-15T10:27:32;3.80;;;2.92;;
29168;SDS011;16219;42.864;23.360;2023-02-15T10:30:08;5.88;;;2.70;;
29168;SDS011;16219;42.864;23.360;2023-02-15T10:32:40;4.00;;;2.17;;
29168;SDS011;16219;42.864;23.360;2023-02-15T10:35:15;3.97;;;3.08;;
29168;SDS011;16219;42.864;23.360;2023-02-15T10:37:53;3.67;;;2.55;;
29168;SDS011;16219;42.864;23.360;2023-02-15T10:40:32;5.72;;;3.83;;
29168;SDS011;16219;42.864;23.360;2023-02-15T10:43:11;2.72;;;2.50;;
29168;SDS011;16219;42.864;23.360;2023-02-15T10:45:51;5.80;;;3.17;;
29168;SDS011;16219;42.864;23.360;2023-02-15T10:48:38;6.03;;;3.05;;
29168;SDS011;16219;42.864;23.360;2023-02-15T10:51:19;3.28;;;2.55;;
29168;SDS011;16219;42.864;23.360;2023-02-15T10:53:57;7.63;;;3.80;;
29168;SDS011;16219;42.864;23.360;2023-02-15T10:56:38;10.18;;;3.08;;
29168;SDS011;16219;42.864;23.360;2023-02-15T11:02:18;4.90;;;3.65;;
29168;SDS011;16219;42.864;23.360;2023-02-15T11:04:53;5.32;;;2.97;;
29168;SDS011;16219;42.864;23.360;2023-02-15T11:07:27;3.45;;;2.58;;
29168;SDS011;16219;42.864;23.360;2023-02-15T11:10:00;4.73;;;4.30;;
29168;SDS011;16219;42.864;23.360;2023-02-15T11:12:40;3.65;;;3.15;;
29168;SDS011;16219;42.864;23.360;2023-02-15T11:15:11;4.72;;;3.13;;
29168;SDS011;16219;42.864;23.360;2023-02-15T11:17:53;4.50;;;2.88;;
29168;SDS011;16219;42.864;23.360;2023-02-15T11:20:28;1.90;;;1.80;;
29168;SDS011;16219;42.864;23.360;2023-02-15T11:22:58;9.02;;;2.90;;
29168;SDS011;16219;42.864;23.360;2023-02-15T11:25:29;6.18;;;3.40;;
29168;SDS011;16219;42.864;23.360;2023-02-15T11:27:57;5.13;;;3.15;;
29168;SDS011;16219;42.864;23.360;2023-02-15T11:30:28;8.05;;;3.15;;
29168;SDS011;16219;42.864;23.360;2023-02-15T11:33:12;5.93;;;3.20;;
29168;SDS011;16219;42.864;23.360;2023-02-15T11:35:47;5.57;;;2.85;;
29168;SDS011;16219;42.864;23.360;2023-02-15T11:38:17;18.27;;;3.08;;
29168;SDS011;16219;42.864;23.360;2023-02-15T11:40:47;5.40;;;3.25;;
29168;SDS011;16219;42.864;23.360;2023-02-15T11:43:16;3.15;;;2.83;;
29168;SDS011;16219;42.864;23.360;2023-02-15T11:48:19;3.33;;;2.53;;
29168;SDS011;16219;42.864;23.360;2023-02-15T11:50:48;3.17;;;2.88;;
29168;SDS011;16219;42.864;23.360;2023-02-15T11:53:18;2.65;;;2.40;;
29168;SDS011;16219;42.864;23.360;2023-02-15T11:55:50;5.13;;;3.42;;
29168;SDS011;16219;42.864;23.360;2023-02-15T11:58:23;6.70;;;3.25;;
29168;SDS011;16219;42.864;23.360;2023-02-15T12:00:56;3.47;;;2.78;;
29168;SDS011;16219;42.864;23.360;2023-02-15T12:03:37;4.20;;;3.10;;
29168;SDS011;16219;42.864;23.360;2023-02-15T12:06:13;3.60;;;3.30;;
29168;SDS011;16219;42.864;23.360;2023-02-15T12:08:48;3.38;;;2.75;;
29168;SDS011;16219;42.864;23.360;2023-02-15T12:11:25;3.45;;;3.15;;
29168;SDS011;16219;42.864;23.360;2023-02-15T12:13:59;4.72;;;3.38;;
29168;SDS011;16219;42.864;23.360;2023-02-15T12:16:28;2.65;;;2.45;;
29168;SDS011;16219;42.864;23.360;2023-02-15T12:19:01;3.60;;;3.30;;
29168;SDS011;16219;42.864;23.360;2023-02-15T12:21:29;4.55;;;3.90;;
29168;SDS011;16219;42.864;23.360;2023-02-15T12:24:00;4.32;;;2.60;;
29168;SDS011;16219;42.864;23.360;2023-02-15T12:26:31;4.90;;;3.38;;
29168;SDS011;16219;42.864;23.360;2023-02-15T12:29:00;3.15;;;2.85;;
29168;SDS011;16219;42.864;23.360;2023-02-15T12:31:36;4.95;;;2.47;;
29168;SDS011;16219;42.864;23.360;2023-02-15T12:34:10;5.90;;;3.53;;
29168;SDS011;16219;42.864;23.360;2023-02-15T12:36:41;5.82;;;3.80;;
29168;SDS011;16219;42.864;23.360;2023-02-15T12:39:18;3.72;;;2.83;;
29168;SDS011;16219;42.864;23.360;2023-02-15T12:41:57;7.57;;;3.78;;
29168;SDS011;16219;42.864;23.360;2023-02-15T12:44:27;3.33;;;3.03;;
29168;SDS011;16219;42.864;23.360;2023-02-15T12:46:57;7.47;;;3.70;;
29168;SDS011;16219;42.864;23.360;2023-02-15T12:49:28;3.80;;;3.40;;
29168;SDS011;16219;42.864;23.360;2023-02-15T12:51:58;4.85;;;3.28;;
29168;SDS011;16219;42.864;23.360;2023-02-15T12:54:29;7.82;;;3.22;;
29168;SDS011;16219;42.864;23.360;2023-02-15T12:59:47;3.50;;;3.20;;
29168;SDS011;16219;42.864;23.360;2023-02-15T13:04:48;3.10;;;2.88;;
29168;SDS011;16219;42.864;23.360;2023-02-15T13:07:17;5.18;;;3.15;;
29168;SDS011;16219;42.864;23.360;2023-02-15T13:09:45;3.47;;;3.17;;
29168;SDS011;16219;42.864;23.360;2023-02-15T13:12:16;5.68;;;3.80;;
29168;SDS011;16219;42.864;23.360;2023-02-15T13:14:47;4.15;;;3.33;;
29168;SDS011;16219;42.864;23.360;2023-02-15T13:17:17;4.18;;;3.40;;
29168;SDS011;16219;42.864;23.360;2023-02-15T13:19:51;4.40;;;3.17;;
29168;SDS011;16219;42.864;23.360;2023-02-15T13:22:21;4.30;;;3.88;;
29168;SDS011;16219;42.864;23.360;2023-02-15T13:24:53;4.43;;;3.30;;
29168;SDS011;16219;42.864;23.360;2023-02-15T13:27:24;4.85;;;3.33;;
29168;SDS011;16219;42.864;23.360;2023-02-15T13:30:00;2.50;;;2.33;;
29168;SDS011;16219;42.864;23.360;2023-02-15T13:32:35;3.22;;;2.92;;
29168;SDS011;16219;42.864;23.360;2023-02-15T13:35:13;4.43;;;3.40;;
29168;SDS011;16219;42.864;23.360;2023-02-15T13:37:55;6.15;;;3.75;;
29168;SDS011;16219;42.864;23.360;2023-02-15T13:40:31;4.88;;;4.30;;
29168;SDS011;16219;42.864;23.360;2023-02-15T13:43:03;8.40;;;5.20;;
29168;SDS011;16219;42.864;23.360;2023-02-15T13:45:39;6.32;;;3.53;;
29168;SDS011;16219;42.864;23.360;2023-02-15T13:48:25;5.30;;;4.00;;
29168;SDS011;16219;42.864;23.360;2023-02-15T13:53:53;8.98;;;4.57;;
29168;SDS011;16219;42.864;23.360;2023-02-15T13:56:32;5.32;;;4.50;;
29168;SDS011;16219;42.864;23.360;2023-02-15T13:59:16;5.72;;;3.80;;
29168;SDS011;16219;42.864;23.360;2023-02-15T14:01:53;5.78;;;3.97;;
29168;SDS011;16219;42.864;23.360;2023-02-15T14:04:53;4.50;;;3.25;;
29168;SDS011;16219;42.864;23.360;2023-02-15T14:10:38;11.93;;;5.28;;
29168;SDS011;16219;42.864;23.360;2023-02-15T14:13:22;5.30;;;3.80;;
29168;SDS011;16219;42.864;23.360;2023-02-15T14:16:03;5.03;;;3.90;;
29168;SDS011;16219;42.864;23.360;2023-02-15T14:18:38;7.30;;;3.58;;
29168;SDS011;16219;42.864;23.360;2023-02-15T14:21:10;4.07;;;3.72;;
29168;SDS011;16219;42.864;23.360;2023-02-15T14:23:47;5.47;;;4.93;;
29168;SDS011;16219;42.864;23.360;2023-02-15T14:26:25;5.35;;;3.25;;
29168;SDS011;16219;42.864;23.360;2023-02-15T14:29:06;5.53;;;4.50;;
29168;SDS011;16219;42.864;23.360;2023-02-15T14:31:44;4.78;;;4.13;;
29168;SDS011;16219;42.864;23.360;2023-02-15T14:34:18;8.98;;;4.72;;
29168;SDS011;16219;42.864;23.360;2023-02-15T14:36:49;5.85;;;4.68;;
29168;SDS011;16219;42.864;23.360;2023-02-15T14:39:28;9.50;;;4.68;;
29168;SDS011;16219;42.864;23.360;2023-02-15T14:42:21;8.45;;;5.53;;
29168;SDS011;16219;42.864;23.360;2023-02-15T14:44:57;6.95;;;4.50;;
29168;SDS011;16219;42.864;23.360;2023-02-15T14:47:32;5.18;;;3.65;;
29168;SDS011;16219;42.864;23.360;2023-02-15T14:58:55;5.20;;;4.50;;
29168;SDS011;16219;42.864;23.360;2023-02-15T15:01:39;6.55;;;4.55;;
29168;SDS011;16219;42.864;23.360;2023-02-15T15:04:10;15.10;;;5.32;;
29168;SDS011;16219;42.864;23.360;2023-02-15T15:06:57;7.63;;;4.38;;
29168;SDS011;16219;42.864;23.360;2023-02-15T15:09:29;6.50;;;4.07;;
29168;SDS011;16219;42.864;23.360;2023-02-15T15:15:00;5.85;;;4.97;;
29168;SDS011;16219;42.864;23.360;2023-02-15T15:20:37;10.57;;;7.75;;
29168;SDS011;16219;42.864;23.360;2023-02-15T15:28:53;10.23;;;5.85;;
29168;SDS011;16219;42.864;23.360;2023-02-15T15:31:43;5.75;;;4.30;;
29168;SDS011;16219;42.864;23.360;2023-02-15T15:34:18;4.30;;;3.90;;
29168;SDS011;16219;42.864;23.360;2023-02-15T15:37:10;6.18;;;4.70;;
29168;SDS011;16219;42.864;23.360;2023-02-15T15:40:13;6.25;;;4.50;;
29168;SDS011;16219;42.864;23.360;2023-02-15T15:42:57;4.47;;;4.13;;
29168;SDS011;16219;42.864;23.360;2023-02-15T15:45:54;7.15;;;5.07;;
29168;SDS011;16219;42.864;23.360;2023-02-15T15:48:34;5.65;;;4.78;;
29168;SDS011;16219;42.864;23.360;2023-02-15T15:51:04;9.57;;;4.75;;
29168;SDS011;16219;42.864;23.360;2023-02-15T15:53:38;5.60;;;4.57;;